Time;durP1;ratioP1;P1;durP2;ratioP2;P2;SDS_P1;SDS_P2;PMS_P1;PMS_P2;Temp;Humidity;BMP_temperature;BMP_pressure;BME280_temperature;BME280_humidity;BME280_pressure;Samples;Min_cycle;Max_cycle;Signal;HPM_P1;HPM_P2
2022/08/28 00:01:30;;;;;;;;;;;;;;;26.10;49.29;154222.14;1718418;83;21283;-62
2022/08/28 00:03:58;;;;;;;;;;;;;;;26.10;49.26;154220.81;1718279;83;20283;-62
2022/08/28 00:06:24;;;;;;;;;;;;;;;26.10;49.15;154220.81;1702220;83;20502;-70
2022/08/28 00:08:51;;;;;;;;;;;;;;;26.14;48.99;154231.28;1693040;84;22526;-70
2022/08/28 00:11:19;;;;;;;;;;;;;;;26.12;48.70;154227.38;1693164;84;20207;-70
2022/08/28 00:13:47;;;;;;;;;;;;;;;26.05;48.77;154209.00;1696428;84;20964;-63
2022/08/28 00:16:16;;;;;;;;;;;;;;;26.09;48.71;154218.19;1700798;83;20494;-62
2022/08/28 00:18:43;;;;;;;;;;;;;;;26.02;48.44;154202.47;1681849;85;20151;-63
2022/08/28 00:21:11;;;;;;;;;;;;;;;25.73;48.92;154129.05;1699393;83;21315;-63
2022/08/28 00:23:37;;;;;;;;;;;;;;;25.38;49.81;154039.91;1701292;84;20134;-63
2022/08/28 00:26:04;;;;;;;;;;;;;;;25.21;50.54;153995.36;1681683;85;20197;-72
2022/08/28 00:28:31;;;;;;;;;;;;;;;25.12;50.52;153974.41;1699320;83;20182;-71
2022/08/28 00:30:58;;;;;;;;;;;;;;;24.83;51.11;153901.03;1671534;84;20497;-62
2022/08/28 00:33:31;;;;;;;;;;;;;;;24.57;51.98;153835.48;1661999;85;21248;-62
2022/08/28 00:35:59;;;;;;;;;;;;;;;24.58;52.30;153836.83;1699773;84;20138;-71
2022/08/28 00:38:26;;;;;;;;;;;;;;;24.62;52.24;153847.30;1701130;84;20238;-72
2022/08/28 00:40:55;;;;;;;;;;;;;;;24.61;52.36;153845.95;1681700;85;20171;-64
2022/08/28 00:43:25;;;;;;;;;;;;;;;24.58;52.54;153836.83;1699815;83;20195;-62
2022/08/28 00:45:52;;;;;;;;;;;;;;;24.58;52.67;153838.11;1701447;84;21108;-63
2022/08/28 00:48:19;;;;;;;;;;;;;;;24.65;52.38;153853.81;1681638;84;20182;-63
2022/08/28 00:53:32;;;;;;;;;;;;;;;24.53;52.42;153825.03;1700975;83;20215;-71
2022/08/28 00:55:58;;;;;;;;;;;;;;;24.29;52.99;153764.78;1681792;85;20191;-61
2022/08/28 00:58:25;;;;;;;;;;;;;;;24.15;53.53;153728.11;1699541;84;21267;-61
2022/08/28 01:00:51;;;;;;;;;;;;;;;24.16;53.94;153732.06;1700759;83;20162;-62
2022/08/28 01:03:18;;;;;;;;;;;;;;;24.25;53.99;153754.33;1681731;85;20204;-62
2022/08/28 01:05:48;;;;;;;;;;;;;;;24.26;54.04;153756.94;1666389;86;20221;-63
2022/08/28 01:08:15;;;;;;;;;;;;;;;24.31;54.32;153770.03;1668392;84;20478;-70
2022/08/28 01:10:42;;;;;;;;;;;;;;;24.48;54.11;153811.94;1668411;84;21897;-71
2022/08/28 01:13:08;;;;;;;;;;;;;;;24.61;53.78;153845.95;1668833;85;20202;-70
2022/08/28 01:15:35;;;;;;;;;;;;;;;24.56;53.82;153832.87;1671255;86;20219;-71
2022/08/28 01:18:05;;;;;;;;;;;;;;;24.50;54.04;153817.17;1671493;84;20450;-72
2022/08/28 01:20:33;;;;;;;;;;;;;;;24.42;54.16;153796.19;1671640;84;20153;-71
2022/08/28 01:23:03;;;;;;;;;;;;;;;24.35;54.43;153779.20;1671402;84;22074;-72
2022/08/28 01:25:32;;;;;;;;;;;;;;;24.26;54.72;153756.94;1671412;84;20220;-71
2022/08/28 01:28:02;;;;;;;;;;;;;;;24.02;55.30;153696.72;1671505;85;20194;-72
2022/08/28 01:30:30;;;;;;;;;;;;;;;23.82;55.93;153645.58;1671585;86;20173;-70
2022/08/28 01:32:57;;;;;;;;;;;;;;;23.74;56.29;153624.66;1671562;85;20187;-70
2022/08/28 01:35:30;;;;;;;;;;;;;;;23.66;56.71;153605.02;1671296;86;20658;-71
2022/08/28 01:37:57;;;;;;;;;;;;;;;23.61;56.99;153591.94;1671186;84;20244;-70
2022/08/28 01:40:28;;;;;;;;;;;;;;;23.49;57.42;153560.50;1644065;86;33510;-70
2022/08/28 01:42:55;;;;;;;;;;;;;;;23.38;58.00;153534.34;1671148;86;20184;-71
2022/08/28 01:45:22;;;;;;;;;;;;;;;23.40;58.41;153539.58;1671406;84;20129;-71
2022/08/28 01:47:49;;;;;;;;;;;;;;;23.40;58.91;153539.58;1671391;86;21245;-71
2022/08/28 01:50:17;;;;;;;;;;;;;;;23.45;58.94;153551.38;1671284;84;20378;-71
2022/08/28 01:52:44;;;;;;;;;;;;;;;23.45;59.10;153552.66;1671546;86;20129;-71
2022/08/28 01:55:11;;;;;;;;;;;;;;;23.41;59.20;153542.19;1671301;84;20200;-69
2022/08/28 01:57:45;;;;;;;;;;;;;;;23.41;59.35;153542.19;1671414;86;20209;-63
2022/08/28 02:00:13;;;;;;;;;;;;;;;23.44;59.40;153550.03;1670972;86;21241;-62
2022/08/28 02:02:40;;;;;;;;;;;;;;;23.43;59.31;153547.42;1671042;86;20157;-62
2022/08/28 02:05:07;;;;;;;;;;;;;;;23.34;59.30;153523.88;1671211;86;20188;-71
2022/08/28 02:07:34;;;;;;;;;;;;;;;23.15;59.78;153476.72;1671349;86;20397;-62
2022/08/28 02:10:01;;;;;;;;;;;;;;;22.95;60.40;153424.38;1671286;86;20253;-70
2022/08/28 02:12:29;;;;;;;;;;;;;;;22.82;60.91;153392.95;1671425;86;21106;-72
2022/08/28 02:14:56;;;;;;;;;;;;;;;22.83;61.24;153395.56;1668611;85;20174;-71
2022/08/28 02:17:23;;;;;;;;;;;;;;;22.88;61.25;153407.36;1668319;86;20205;-63
2022/08/28 02:19:50;;;;;;;;;;;;;;;23.00;61.38;153438.78;1668465;86;20532;-71
2022/08/28 02:22:17;;;;;;;;;;;;;;;23.22;61.00;153493.73;1668600;86;20174;-70
2022/08/28 02:24:45;;;;;;;;;;;;;;;23.46;60.67;153553.98;1668285;84;21155;-63
2022/08/28 02:27:11;;;;;;;;;;;;;;;23.62;60.25;153594.55;1668200;86;20692;-63
2022/08/28 02:29:38;;;;;;;;;;;;;;;23.83;59.80;153646.91;1668145;86;20189;-62
2022/08/28 02:32:05;;;;;;;;;;;;;;;23.92;59.53;153670.45;1668183;84;20289;-63
2022/08/28 02:34:33;;;;;;;;;;;;;;;23.94;59.39;153675.69;1668270;86;20457;-63
2022/08/28 02:37:00;;;;;;;;;;;;;;;23.88;59.58;153659.98;1668274;84;21144;-62
2022/08/28 02:39:27;;;;;;;;;;;;;;;23.74;59.98;153625.94;1668156;84;20197;-62
2022/08/28 02:41:53;;;;;;;;;;;;;;;23.74;60.32;153625.94;1668135;85;20180;-63
2022/08/28 02:44:20;;;;;;;;;;;;;;;23.76;60.45;153629.87;1668467;86;20201;-72
2022/08/28 02:46:47;;;;;;;;;;;;;;;23.67;60.54;153606.34;1668559;84;20404;-71
2022/08/28 02:49:14;;;;;;;;;;;;;;;23.42;61.08;153544.81;1668332;86;21313;-62
2022/08/28 02:51:40;;;;;;;;;;;;;;;23.10;62.00;153463.64;1668223;86;20236;-62
2022/08/28 02:54:07;;;;;;;;;;;;;;;22.92;63.02;153416.53;1668269;86;20169;-62
2022/08/28 02:56:34;;;;;;;;;;;;;;;22.88;63.42;153408.69;1667993;86;20458;-62
2022/08/28 02:59:01;;;;;;;;;;;;;;;22.91;63.58;153413.91;1668089;86;20213;-62
2022/08/28 03:01:28;;;;;;;;;;;;;;;23.00;63.29;153437.44;1668192;86;21285;-63
2022/08/28 03:03:54;;;;;;;;;;;;;;;23.07;63.03;153455.75;1668151;86;20406;-63
2022/08/28 03:06:21;;;;;;;;;;;;;;;23.09;62.72;153459.69;1666156;86;20615;-63
2022/08/28 03:08:48;;;;;;;;;;;;;;;23.15;62.56;153476.72;1699213;84;20191;-62
2022/08/28 03:11:16;;;;;;;;;;;;;;;23.25;62.17;153500.25;1699189;84;20155;-63
2022/08/28 03:13:43;;;;;;;;;;;;;;;23.32;61.41;153519.94;1700851;83;21854;-63
2022/08/28 03:16:10;;;;;;;;;;;;;;;23.29;61.09;153510.77;1681332;84;20203;-70
2022/08/28 03:18:37;;;;;;;;;;;;;;;23.24;60.90;153497.64;1699505;84;20186;-69
2022/08/28 03:21:04;;;;;;;;;;;;;;;23.20;60.59;153487.17;1701103;84;20162;-69
2022/08/28 03:23:31;;;;;;;;;;;;;;;23.19;60.71;153485.84;1681857;85;20187;-70
2022/08/28 03:26:00;;;;;;;;;;;;;;;23.22;60.47;153493.73;1665313;84;22084;-70
2022/08/28 03:28:29;;;;;;;;;;;;;;;23.25;60.24;153501.63;1699577;84;20576;-62
2022/08/28 03:30:56;;;;;;;;;;;;;;;23.30;60.01;153513.38;1701230;84;20458;-62
2022/08/28 03:33:24;;;;;;;;;;;;;;;23.42;59.92;153544.81;1682062;85;20143;-62
2022/08/28 03:35:50;;;;;;;;;;;;;;;23.52;59.60;153569.67;1699250;84;20182;-62
2022/08/28 03:38:17;;;;;;;;;;;;;;;23.65;59.38;153601.06;1700790;84;21254;-62
2022/08/28 03:40:45;;;;;;;;;;;;;;;23.82;59.04;153644.30;1681389;85;20172;-63
2022/08/28 03:43:13;;;;;;;;;;;;;;;23.81;58.71;153642.97;1699207;84;20444;-62
2022/08/28 03:45:40;;;;;;;;;;;;;;;23.66;59.21;153603.73;1701284;84;20118;-62
2022/08/28 03:48:07;;;;;;;;;;;;;;;23.60;59.90;153589.31;1701091;84;20198;-62
2022/08/28 03:50:33;;;;;;;;;;;;;;;23.67;60.27;153607.62;1681899;85;20584;-62
2022/08/28 03:53:01;;;;;;;;;;;;;;;23.78;60.46;153633.83;1699098;84;20209;-71
2022/08/28 03:55:28;;;;;;;;;;;;;;;23.98;60.44;153686.16;1699400;83;20198;-63
2022/08/28 03:57:55;;;;;;;;;;;;;;;24.17;59.75;153734.67;1700742;83;20193;-62
2022/08/28 04:00:21;;;;;;;;;;;;;;;24.38;59.19;153787.06;1681769;85;20129;-62
2022/08/28 04:02:48;;;;;;;;;;;;;;;24.62;58.54;153847.30;1665264;86;21346;-70
2022/08/28 04:05:16;;;;;;;;;;;;;;;24.85;58.22;153904.97;1700234;84;20204;-62
2022/08/28 04:07:43;;;;;;;;;;;;;;;25.20;57.38;153994.06;1704474;84;20478;-63
2022/08/28 04:10:11;;;;;;;;;;;;;;;25.46;56.29;154060.86;1687671;85;20189;-63
2022/08/28 04:12:37;;;;;;;;;;;;;;;25.51;55.78;154071.37;1658436;85;20458;-63
2022/08/28 04:15:05;;;;;;;;;;;;;;;25.43;55.68;154053.00;1695330;83;21265;-72
2022/08/28 04:17:33;;;;;;;;;;;;;;;25.42;55.97;154050.39;1671590;86;20481;-72
2022/08/28 04:19:59;;;;;;;;;;;;;;;25.58;55.82;154089.77;1718569;83;20180;-71
2022/08/28 04:22:28;;;;;;;;;;;;;;;25.84;55.30;154155.28;1718838;83;20200;-70
2022/08/28 04:24:55;;;;;;;;;;;;;;;26.09;54.54;154218.19;1744481;81;20626;-70
2022/08/28 04:27:21;;;;;;;;;;;;;;;26.35;53.92;154283.77;1718912;83;21853;-70
2022/08/28 04:29:48;;;;;;;;;;;;;;;26.62;53.06;154351.94;1718866;83;20192;-72
2022/08/28 04:32:15;;;;;;;;;;;;;;;26.80;52.68;154399.16;1718615;83;20177;-63
2022/08/28 04:34:42;;;;;;;;;;;;;;;26.98;52.16;154443.80;1718430;83;20201;-62
2022/08/28 04:37:08;;;;;;;;;;;;;;;27.01;51.81;154451.66;1718687;83;20201;-62
2022/08/28 04:39:35;;;;;;;;;;;;;;;26.80;51.56;154399.16;1718747;83;21149;-63
2022/08/28 04:42:02;;;;;;;;;;;;;;;26.58;52.60;154344.08;1718673;83;20200;-63
2022/08/28 04:44:29;;;;;;;;;;;;;;;26.69;52.86;154370.33;1719134;83;20433;-63
2022/08/28 04:46:56;;;;;;;;;;;;;;;26.88;52.39;154420.22;1718604;83;20164;-71
2022/08/28 04:49:22;;;;;;;;;;;;;;;27.04;51.95;154459.52;1718915;83;20391;-70
2022/08/28 04:51:50;;;;;;;;;;;;;;;27.22;51.45;154504.13;1718735;83;21234;-70
2022/08/28 04:54:17;;;;;;;;;;;;;;;27.42;51.06;154556.59;1718730;83;20165;-72
2022/08/28 04:56:43;;;;;;;;;;;;;;;27.60;50.16;154601.25;1719036;83;20192;-73
2022/08/28 04:59:10;;;;;;;;;;;;;;;27.69;49.84;154623.56;1718878;83;20176;-73
2022/08/28 05:01:39;;;;;;;;;;;;;;;27.58;49.58;154596.02;1718949;83;20209;-71
2022/08/28 05:04:05;;;;;;;;;;;;;;;27.46;50.07;154565.80;1718942;83;22914;-72
2022/08/28 05:06:33;;;;;;;;;;;;;;;27.50;50.17;154576.28;1700942;83;20638;-72
2022/08/28 05:09:01;;;;;;;;;;;;;;;27.70;49.84;154627.47;1693651;84;20268;-72
2022/08/28 05:11:29;;;;;;;;;;;;;;;27.94;49.45;154687.83;1693994;84;20155;-63
2022/08/28 05:13:56;;;;;;;;;;;;;;;28.18;48.91;154748.23;1693015;84;20170;-63
2022/08/28 05:16:22;;;;;;;;;;;;;;;28.40;48.38;154803.36;1699220;84;21274;-64
2022/08/28 05:18:49;;;;;;;;;;;;;;;28.63;47.69;154862.44;1701098;84;20302;-63
2022/08/28 05:21:21;;;;;;;;;;;;;;;28.79;47.20;154901.84;1681692;84;20175;-63
2022/08/28 05:23:48;;;;;;;;;;;;;;;28.82;46.43;154911.05;1699558;83;20444;-63
2022/08/28 05:26:16;;;;;;;;;;;;;;;28.81;46.37;154908.42;1699275;84;20130;-62
2022/08/28 05:28:43;;;;;;;;;;;;;;;28.93;46.05;154937.33;1701264;83;21262;-71
2022/08/28 05:31:18;;;;;;;;;;;;;;;29.12;45.69;154987.22;1681911;84;20180;-70
2022/08/28 05:33:46;;;;;;;;;;;;;;;29.35;45.31;155045.00;1699780;83;20221;-72
2022/08/28 05:36:13;;;;;;;;;;;;;;;29.76;44.30;155147.50;1701113;84;20468;-72
2022/08/28 05:38:40;;;;;;;;;;;;;;;30.19;43.33;155257.88;1681934;85;20172;-63
2022/08/28 05:41:07;;;;;;;;;;;;;;;30.44;42.55;155320.94;1699244;84;21239;-63
2022/08/28 05:43:35;;;;;;;;;;;;;;;30.69;42.16;155384.05;1701085;84;20178;-63
2022/08/28 05:46:06;;;;;;;;;;;;;;;31.05;41.43;155476.02;1681728;84;20226;-63
2022/08/28 05:48:33;;;;;;;;;;;;;;;31.45;40.90;155577.31;1665548;85;20588;-64
2022/08/28 05:51:06;;;;;;;;;;;;;;;31.83;39.67;155674.66;1699234;84;20604;-64
2022/08/28 05:53:40;;;;;;;;;;;;;;;32.15;39.02;155756.16;1700970;83;21220;-64
2022/08/28 05:56:08;;;;;;;;;;;;;;;32.39;38.35;155815.41;1681806;84;20210;-64
2022/08/28 05:58:36;;;;;;;;;;;;;;;32.41;37.83;155820.66;1699085;83;20573;-71
2022/08/28 06:01:09;;;;;;;;;;;;;;;32.21;38.34;155770.64;1701129;84;20499;-71
2022/08/28 06:03:36;;;;;;;;;;;;;;;32.12;39.45;155748.28;1700546;83;20182;-70
2022/08/28 06:06:03;;;;;;;;;;;;;;;32.12;40.12;155748.28;1684300;85;21305;-62
2022/08/28 06:08:30;;;;;;;;;;;;;;;32.09;40.28;155740.39;1639912;87;20484;-63
2022/08/28 06:10:57;;;;;;;;;;;;;;;32.22;39.97;155771.92;1687283;84;20173;-71
2022/08/28 06:13:24;;;;;;;;;;;;;;;32.40;39.72;155818.03;1639901;86;20930;-73
2022/08/28 06:15:51;;;;;;;;;;;;;;;32.48;39.23;155839.06;1687500;83;20184;-63
2022/08/28 06:18:19;;;;;;;;;;;;;;;32.54;39.26;155854.83;1639510;86;21402;-63
2022/08/28 06:20:46;;;;;;;;;;;;;;;32.58;39.30;155865.34;1687197;83;20221;-63
2022/08/28 06:23:17;;;;;;;;;;;;;;;32.71;39.13;155896.94;1639867;87;20214;-71
2022/08/28 06:25:45;;;;;;;;;;;;;;;32.94;38.67;155956.20;1687838;84;20183;-72
2022/08/28 06:28:13;;;;;;;;;;;;;;;33.21;37.85;156023.27;1639826;87;20207;-72
2022/08/28 06:30:40;;;;;;;;;;;;;;;33.34;37.04;156057.50;1687724;85;21321;-72
2022/08/28 06:33:06;;;;;;;;;;;;;;;33.36;36.81;156061.41;1639760;87;20496;-71
2022/08/28 06:35:33;;;;;;;;;;;;;;;33.26;36.97;156036.41;1687460;83;20176;-71
2022/08/28 06:38:00;;;;;;;;;;;;;;;33.24;37.20;156031.16;1639368;87;20219;-63
2022/08/28 06:40:27;;;;;;;;;;;;;;;33.26;36.94;156036.41;1687593;84;20178;-72
2022/08/28 06:42:54;;;;;;;;;;;;;;;33.32;36.76;156050.89;1639789;87;21144;-72
2022/08/28 06:45:21;;;;;;;;;;;;;;;33.40;36.64;156071.98;1687516;83;20093;-72
2022/08/28 06:47:47;;;;;;;;;;;;;;;33.53;36.10;156104.92;1639735;86;20219;-71
2022/08/28 06:50:15;;;;;;;;;;;;;;;33.57;35.46;156115.44;1687346;83;20339;-63
2022/08/28 06:52:42;;;;;;;;;;;;;;;33.53;35.55;156104.92;1640015;87;20219;-71
2022/08/28 06:55:09;;;;;;;;;;;;;;;33.59;34.60;156120.69;1687534;85;21126;-72
2022/08/28 06:57:36;;;;;;;;;;;;;;;33.70;34.18;156149.62;1640070;87;20159;-71
2022/08/28 07:00:04;;;;;;;;;;;;;;;33.86;33.13;156189.13;1687219;84;20212;-64
2022/08/28 07:02:31;;;;;;;;;;;;;;;34.05;32.93;156236.56;1639660;86;20235;-63
2022/08/28 07:04:58;;;;;;;;;;;;;;;34.14;33.52;156261.58;1686786;85;20508;-61
2022/08/28 07:07:24;;;;;;;;;;;;;;;34.13;33.71;156257.61;1699218;83;21973;-63
2022/08/28 07:09:51;;;;;;;;;;;;;;;34.17;33.19;156266.84;1700977;83;20222;-63
2022/08/28 07:12:18;;;;;;;;;;;;;;;34.19;33.01;156273.44;1681638;85;20180;-63
2022/08/28 07:14:45;;;;;;;;;;;;;;;34.21;33.25;156278.69;1699239;83;20178;-63
2022/08/28 07:17:11;;;;;;;;;;;;;;;34.29;33.63;156299.73;1701095;84;20194;-63
2022/08/28 07:19:39;;;;;;;;;;;;;;;34.33;33.80;156307.63;1701297;84;21252;-72
2022/08/28 07:22:05;;;;;;;;;;;;;;;34.23;34.12;156283.95;1701434;84;20161;-72
2022/08/28 07:24:33;;;;;;;;;;;;;;;34.11;34.56;156252.34;1701357;84;20451;-71
2022/08/28 07:27:00;;;;;;;;;;;;;;;34.15;35.55;156262.86;1701360;84;20170;-62
2022/08/28 07:29:26;;;;;;;;;;;;;;;34.26;35.70;156290.50;1701256;84;20147;-72
2022/08/28 07:31:55;;;;;;;;;;;;;;;34.29;35.69;156299.73;1701480;83;21107;-63
2022/08/28 07:34:22;;;;;;;;;;;;;;;34.25;35.55;156289.22;1701404;84;20147;-72
2022/08/28 07:36:51;;;;;;;;;;;;;;;34.05;35.73;156237.91;1701523;83;20202;-72
2022/08/28 07:39:17;;;;;;;;;;;;;;;33.93;36.32;156207.53;1701767;84;20450;-72
2022/08/28 07:41:43;;;;;;;;;;;;;;;33.94;37.42;156208.87;1701722;84;20194;-72
2022/08/28 07:46:58;;;;;;;;;;;;;;;34.14;37.26;156261.58;1701213;84;20182;-62
2022/08/28 07:49:24;;;;;;;;;;;;;;;34.25;36.98;156289.22;1701858;84;20186;-72
2022/08/28 07:51:52;;;;;;;;;;;;;;;34.16;36.97;156265.55;1701576;84;20188;-72
2022/08/28 07:54:19;;;;;;;;;;;;;;;34.06;37.09;156239.19;1701417;84;20160;-71
2022/08/28 07:56:46;;;;;;;;;;;;;;;34.04;36.85;156235.22;1701768;83;22263;-71
2022/08/28 07:59:13;;;;;;;;;;;;;;;34.11;37.36;156253.69;1701178;84;20178;-72
2022/08/28 08:01:41;;;;;;;;;;;;;;;34.21;37.41;156278.69;1701685;84;20446;-72
2022/08/28 08:04:11;;;;;;;;;;;;;;;34.25;37.17;156289.22;1701339;83;20134;-62
2022/08/28 08:06:39;;;;;;;;;;;;;;;34.23;37.29;156283.95;1705907;84;20154;-62
2022/08/28 08:09:08;;;;;;;;;;;;;;;34.08;38.00;156245.78;1706918;84;21229;-62
2022/08/28 08:11:36;;;;;;;;;;;;;;;33.99;38.73;156222.08;1707515;84;20590;-71
2022/08/28 08:14:04;;;;;;;;;;;;;;;33.92;38.84;156204.91;1706956;84;20193;-62
2022/08/28 08:16:33;;;;;;;;;;;;;;;33.89;38.78;156197.00;1705955;82;20188;-71
2022/08/28 08:19:00;;;;;;;;;;;;;;;33.97;38.32;156218.16;1704856;84;20192;-62
2022/08/28 08:21:27;;;;;;;;;;;;;;;33.92;38.12;156204.91;1704982;83;21206;-71
2022/08/28 08:23:54;;;;;;;;;;;;;;;33.75;38.23;156161.48;1705103;84;20498;-71
2022/08/28 08:26:23;;;;;;;;;;;;;;;33.62;38.09;156128.59;1704941;82;20179;-62
2022/08/28 08:28:50;;;;;;;;;;;;;;;33.66;38.25;156137.81;1705214;84;20498;-62
2022/08/28 08:31:22;;;;;;;;;;;;;;;33.83;37.89;156181.23;1704832;84;20179;-62
2022/08/28 08:33:50;;;;;;;;;;;;;;;33.94;37.52;156210.22;1705515;84;21220;-73
2022/08/28 08:36:18;;;;;;;;;;;;;;;34.04;37.21;156233.94;1704951;84;20188;-63
2022/08/28 08:38:45;;;;;;;;;;;;;;;34.03;37.36;156231.30;1705590;84;20136;-63
2022/08/28 08:41:16;;;;;;;;;;;;;;;33.88;37.64;156194.38;1704951;84;20215;-63
2022/08/28 08:43:46;;;;;;;;;;;;;;;33.78;38.05;156168.08;1705317;84;20175;-61
2022/08/28 08:46:12;;;;;;;;;;;;;;;33.75;38.58;156161.48;1704440;84;21147;-71
2022/08/28 08:48:39;;;;;;;;;;;;;;;33.77;38.10;156165.45;1705058;84;20172;-71
2022/08/28 08:51:16;;;;;;;;;;;;;;;33.69;38.17;156147.00;1677337;84;20216;-73
2022/08/28 08:54:04;;;;;;;;;;;;;;;33.60;38.51;156121.98;1705405;84;20203;-72
2022/08/28 08:56:30;;;;;;;;;;;;;;;33.45;38.99;156083.84;1704482;83;20183;-72
2022/08/28 08:59:00;;;;;;;;;;;;;;;33.38;39.45;156068.02;1705116;84;21308;-63
2022/08/28 09:01:44;;;;;;;;;;;;;;;33.40;39.34;156073.27;1704979;84;20386;-63
2022/08/28 09:04:41;;;;;;;;;;;;;;;33.48;39.27;156091.72;1705029;84;20191;-63
2022/08/28 09:07:36;;;;;;;;;;;;;;;33.50;39.21;156097.03;1670222;85;20697;-73
2022/08/28 09:10:05;;;;;;;;;;;;;;;33.36;39.34;156062.75;1701155;84;20182;-72
2022/08/28 09:12:36;;;;;;;;;;;;;;;33.19;40.18;156018.00;1682056;85;21109;-71
2022/08/28 09:15:16;;;;;;;;;;;;;;;33.12;40.47;156002.23;1699197;84;20212;-71
2022/08/28 09:17:56;;;;;;;;;;;;;;;33.10;40.54;155995.64;1701436;83;20130;-71
2022/08/28 09:20:26;;;;;;;;;;;;;;;33.05;40.45;155982.50;1680706;84;20178;-72
2022/08/28 09:22:53;;;;;;;;;;;;;;;33.07;40.25;155989.09;1699521;84;20186;-71
2022/08/28 09:25:50;;;;;;;;;;;;;;;33.00;40.28;155971.97;1701111;84;21268;-71
2022/08/28 09:28:33;;;;;;;;;;;;;;;32.95;41.16;155957.50;1681103;85;20187;-71
2022/08/28 09:31:14;;;;;;;;;;;;;;;32.97;42.16;155962.75;1699390;84;20498;-71
2022/08/28 09:33:43;;;;;;;;;;;;;;;33.07;42.84;155989.09;1701263;84;20150;-72
2022/08/28 09:36:31;;;;;;;;;;;;;;;33.14;42.44;156006.16;1681874;85;20496;-72
2022/08/28 09:39:10;;;;;;;;;;;;;;;33.20;42.43;156020.63;1699449;83;21023;-72
2022/08/28 09:45:00;;;;;;;;;;;;;;;32.88;42.99;155939.05;1681780;85;20229;-72
2022/08/28 09:47:41;;;;;;;;;;;;;;;32.93;42.57;155952.23;1699367;84;20159;-71
2022/08/28 09:50:22;;;;;;;;;;;;;;;33.20;42.45;156020.63;1699634;84;20318;-73
2022/08/28 09:52:50;;;;;;;;;;;;;;;33.36;42.16;156062.75;1701468;84;21263;-72
2022/08/28 09:55:25;;;;;;;;;;;;;;;33.36;42.11;156062.75;1681721;85;20123;-62
2022/08/28 09:57:53;;;;;;;;;;;;;;;33.24;42.74;156031.16;1698306;84;20183;-62
2022/08/28 10:00:21;;;;;;;;;;;;;;;33.17;42.22;156012.75;1700866;83;20517;-63
2022/08/28 10:03:01;;;;;;;;;;;;;;;33.19;42.72;156018.00;1701332;83;20138;-63
2022/08/28 10:05:40;;;;;;;;;;;;;;;33.33;42.76;156054.86;1683132;85;21094;-63
2022/08/28 10:08:26;;;;;;;;;;;;;;;33.38;43.23;156066.67;1686509;84;20652;-71
2022/08/28 10:10:54;;;;;;;;;;;;;;;33.25;43.56;156033.78;1639541;87;20214;-62
2022/08/28 10:13:29;;;;;;;;;;;;;;;33.12;43.21;156002.23;1687258;85;20438;-61
2022/08/28 10:16:15;;;;;;;;;;;;;;;33.09;42.82;155994.34;1685554;83;20185;-72
2022/08/28 10:18:51;;;;;;;;;;;;;;;33.12;42.85;156002.23;1658027;86;22712;-71
2022/08/28 10:21:21;;;;;;;;;;;;;;;33.18;43.38;156015.38;1687145;83;20177;-62
2022/08/28 10:24:04;;;;;;;;;;;;;;;33.12;43.55;156002.23;1639622;87;20215;-62
2022/08/28 10:26:57;;;;;;;;;;;;;;;32.95;44.09;155957.50;1687408;84;20450;-71
2022/08/28 10:29:48;;;;;;;;;;;;;;;32.81;44.88;155923.22;1639718;87;20124;-71
2022/08/28 10:32:21;;;;;;;;;;;;;;;32.73;44.85;155902.19;1687750;85;21041;-73
2022/08/28 10:35:10;;;;;;;;;;;;;;;32.63;44.66;155877.20;1639766;87;21287;-72
2022/08/28 10:37:48;;;;;;;;;;;;;;;32.55;45.23;155856.17;1687264;84;20176;-70
2022/08/28 10:40:17;;;;;;;;;;;;;;;32.44;44.76;155828.55;1685074;84;20171;-70
2022/08/28 10:42:57;;;;;;;;;;;;;;;32.32;45.75;155798.25;1699502;84;20501;-62
2022/08/28 10:45:24;;;;;;;;;;;;;;;32.26;45.53;155782.44;1704436;82;22088;-62
2022/08/28 10:47:56;;;;;;;;;;;;;;;32.22;45.67;155771.92;1704790;84;20120;-62
2022/08/28 10:50:30;;;;;;;;;;;;;;;32.22;43.88;155773.27;1704370;84;20180;-71
2022/08/28 10:53:06;;;;;;;;;;;;;;;32.19;43.04;155765.37;1704543;83;20487;-72
2022/08/28 10:56:01;;;;;;;;;;;;;;;32.13;42.11;155749.56;1704707;84;20096;-71
2022/08/28 10:58:29;;;;;;;;;;;;;;;31.97;43.18;155710.16;1704546;84;21131;-63
2022/08/28 11:01:01;;;;;;;;;;;;;;;32.01;42.52;155720.66;1687435;85;20508;-70
2022/08/28 11:03:29;;;;;;;;;;;;;;;32.14;42.37;155752.19;1639692;87;20230;-72
2022/08/28 11:06:04;;;;;;;;;;;;;;;32.33;41.89;155799.59;1684770;84;20151;-63
2022/08/28 11:08:33;;;;;;;;;;;;;;;32.40;41.89;155819.33;1698651;84;20158;-71
2022/08/28 11:11:01;;;;;;;;;;;;;;;32.36;41.00;155808.81;1701199;84;21151;-62
2022/08/28 11:13:41;;;;;;;;;;;;;;;32.26;40.51;155783.78;1661611;85;20084;-63
2022/08/28 11:16:23;;;;;;;;;;;;;;;32.28;41.13;155787.75;1687841;83;20194;-62
2022/08/28 11:18:55;;;;;;;;;;;;;;;32.36;41.99;155807.47;1706097;83;20455;-63
2022/08/28 11:21:35;;;;;;;;;;;;;;;32.45;42.09;155831.19;1699086;84;20144;-63
2022/08/28 11:24:42;;;;;;;;;;;;;;;32.43;41.66;155825.92;1706593;84;21215;-62
2022/08/28 11:27:28;;;;;;;;;;;;;;;32.41;41.74;155820.66;1699232;83;20532;-72
2022/08/28 11:30:17;;;;;;;;;;;;;;;32.38;41.68;155812.73;1706282;84;20210;-71
2022/08/28 11:32:53;;;;;;;;;;;;;;;32.43;41.68;155825.92;1699345;84;20958;-71
2022/08/28 11:35:33;;;;;;;;;;;;;;;32.55;41.42;155856.17;1706284;84;20650;-62
2022/08/28 11:38:00;;;;;;;;;;;;;;;32.53;41.34;155852.20;1706446;83;21834;-62
2022/08/28 11:40:30;;;;;;;;;;;;;;;32.49;41.55;155841.69;1699131;84;20139;-71
2022/08/28 11:43:19;;;;;;;;;;;;;;;32.40;40.48;155818.03;1706405;84;20198;-71
2022/08/28 11:45:48;;;;;;;;;;;;;;;32.36;40.12;155807.47;1699257;84;20230;-71
2022/08/28 11:48:34;;;;;;;;;;;;;;;32.44;41.38;155828.55;1706247;84;20205;-71
2022/08/28 11:51:06;;;;;;;;;;;;;;;32.58;41.24;155865.34;1699543;83;21323;-72
2022/08/28 11:54:01;;;;;;;;;;;;;;;32.71;42.20;155898.22;1706848;84;20118;-71
2022/08/28 11:56:51;;;;;;;;;;;;;;;32.50;42.50;155844.31;1698916;83;20772;-61
2022/08/28 11:59:34;;;;;;;;;;;;;;;32.38;43.93;155814.06;1706262;84;20725;-63
2022/08/28 12:02:39;;;;;;;;;;;;;;;32.44;43.44;155828.55;1699035;84;20186;-71
2022/08/28 12:05:08;;;;;;;;;;;;;;;32.56;42.88;155860.09;1706342;83;21153;-62
2022/08/28 12:07:40;;;;;;;;;;;;;;;32.61;42.47;155870.59;1709475;84;20473;-62
2022/08/28 12:10:25;;;;;;;;;;;;;;;32.43;43.32;155825.92;1709395;82;20289;-61
2022/08/28 12:12:56;;;;;;;;;;;;;;;32.20;44.45;155768.00;1684978;84;20207;-61
2022/08/28 12:15:30;;;;;;;;;;;;;;;32.20;44.03;155768.00;1709631;82;20497;-61
2022/08/28 12:18:03;;;;;;;;;;;;;;;32.32;43.93;155796.92;1706283;81;21129;-71
2022/08/28 12:20:36;;;;;;;;;;;;;;;32.47;43.78;155836.44;1704296;84;20168;-62
2022/08/28 12:23:24;;;;;;;;;;;;;;;32.54;43.70;155854.83;1704532;82;20221;-61
2022/08/28 12:26:00;;;;;;;;;;;;;;;32.54;43.53;155854.83;1704781;84;20183;-61
2022/08/28 12:28:30;;;;;;;;;;;;;;;32.50;42.49;155843.03;1702925;82;20172;-70
2022/08/28 12:31:07;;;;;;;;;;;;;;;32.50;41.87;155844.31;1704491;84;21139;-62
2022/08/28 12:33:55;;;;;;;;;;;;;;;32.46;42.27;155833.81;1692325;84;20204;-62
2022/08/28 12:36:25;;;;;;;;;;;;;;;32.52;42.48;155849.58;1644005;87;20555;-62
2022/08/28 12:38:50;;;;;;;;;;;;;;;32.47;43.56;155836.44;1692222;83;20179;-69
2022/08/28 12:41:17;;;;;;;;;;;;;;;32.39;44.50;155815.41;1644002;87;20243;-70
2022/08/28 12:43:45;;;;;;;;;;;;;;;32.36;44.65;155807.47;1692207;83;21123;-62
2022/08/28 12:46:16;;;;;;;;;;;;;;;32.35;44.40;155806.19;1643970;87;20500;-63
2022/08/28 12:48:58;;;;;;;;;;;;;;;32.28;44.34;155789.03;1645550;85;20231;-63
2022/08/28 12:51:24;;;;;;;;;;;;;;;32.22;45.29;155773.27;1691494;84;20200;-72
2022/08/28 12:53:54;;;;;;;;;;;;;;;32.17;46.24;155760.12;1644599;87;20163;-72
2022/08/28 12:56:21;;;;;;;;;;;;;;;32.12;47.77;155746.94;1692364;83;21916;-71
2022/08/28 12:58:48;;;;;;;;;;;;;;;32.08;48.91;155737.77;1643723;87;20223;-72
2022/08/28 13:01:24;;;;;;;;;;;;;;;32.13;48.23;155749.56;1692090;84;20232;-73